createdAt,value
2022-10-11T00:00:21.370Z,6.88
2022-10-11T00:00:55.994Z,6.88
2022-10-11T00:01:28.079Z,6.88
2022-10-11T00:02:00.307Z,6.88
2022-10-11T00:02:30.874Z,6.88
2022-10-11T00:03:03.827Z,6.88
2022-10-11T00:03:35.847Z,6.88
2022-10-11T00:03:58.638Z,6.88
2022-10-11T00:04:21.053Z,6.77
2022-10-11T00:04:55.969Z,6.77
2022-10-11T00:05:27.947Z,6.77
2022-10-11T00:06:00.023Z,6.77
2022-10-11T00:06:30.905Z,6.77
2022-10-11T00:07:03.863Z,6.77
2022-10-11T00:07:35.786Z,6.77
2022-10-11T00:07:58.626Z,6.72
2022-10-11T00:08:20.941Z,6.72
2022-10-11T00:08:56.045Z,6.72
2022-10-11T00:09:28.183Z,6.72
2022-10-11T00:10:00.333Z,6.72
2022-10-11T00:10:30.960Z,6.72
2022-10-11T00:11:03.901Z,6.72
2022-10-11T00:11:35.884Z,6.72
2022-10-11T00:11:58.590Z,6.72
2022-10-11T00:12:21.008Z,6.72
2022-10-11T00:12:56.583Z,6.61
2022-10-11T00:13:27.931Z,6.61
2022-10-11T00:13:59.886Z,6.61
2022-10-11T00:14:30.853Z,6.50
2022-10-11T00:15:04.173Z,6.38
2022-10-11T00:15:36.414Z,6.38
2022-10-11T00:15:59.289Z,6.38
2022-10-11T00:16:21.590Z,6.38
2022-10-11T00:16:55.949Z,6.27
2022-10-11T00:17:27.807Z,6.27
2022-10-11T00:18:04.513Z,6.27
2022-10-11T00:18:30.849Z,6.27
2022-10-11T00:19:03.962Z,6.27
2022-10-11T00:19:35.891Z,6.27
2022-10-11T00:19:58.770Z,6.27
2022-10-11T00:20:21.133Z,6.27
2022-10-11T00:20:59.288Z,6.27
2022-10-11T00:21:27.811Z,6.27
2022-10-11T00:21:59.832Z,6.27
2022-10-11T00:22:33.438Z,6.27
2022-10-11T00:23:03.905Z,6.27
2022-10-11T00:23:35.894Z,6.27
2022-10-11T00:23:59.425Z,6.27
2022-10-11T00:24:21.665Z,6.27
2022-10-11T00:24:55.872Z,6.22
2022-10-11T00:25:27.935Z,6.22
2022-10-11T00:25:59.794Z,6.22
2022-10-11T00:26:31.106Z,6.22
2022-10-11T00:27:03.909Z,6.11
2022-10-11T00:27:35.860Z,6.11
2022-10-11T00:27:58.570Z,6.11
2022-10-11T00:28:20.899Z,6.11
2022-10-11T00:28:57.528Z,6.00
2022-10-11T00:29:27.891Z,6.00
2022-10-11T00:29:59.977Z,5.88
2022-10-11T00:30:31.288Z,5.88
2022-10-11T00:31:04.096Z,5.88
2022-10-11T00:31:36.035Z,5.88
2022-10-11T00:32:00.186Z,5.88
2022-10-11T00:32:21.103Z,5.77
2022-10-11T00:32:55.967Z,5.77
2022-10-11T00:33:28.304Z,5.77
2022-10-11T00:33:59.908Z,5.77
2022-10-11T00:34:31.177Z,5.77
2022-10-11T00:35:03.929Z,5.77
2022-10-11T00:35:35.841Z,5.77
2022-10-11T00:35:58.628Z,5.88
2022-10-11T00:36:21.180Z,5.88
2022-10-11T00:36:55.942Z,5.88
2022-10-11T00:37:28.033Z,5.88
2022-10-11T00:37:59.877Z,5.88
2022-10-11T00:38:32.071Z,5.88
2022-10-11T00:39:03.822Z,5.77
2022-10-11T00:39:35.757Z,5.77
2022-10-11T00:39:58.759Z,5.77
2022-10-11T00:40:21.318Z,5.77
2022-10-11T00:40:56.060Z,5.77
2022-10-11T00:41:28.031Z,5.77
2022-10-11T00:41:59.760Z,5.88
2022-10-11T00:42:30.838Z,5.88
2022-10-11T00:43:03.867Z,5.88
2022-10-11T00:43:35.863Z,5.88
2022-10-11T00:43:58.638Z,5.77
2022-10-11T00:44:21.002Z,5.77
2022-10-11T00:44:56.068Z,5.77
2022-10-11T00:45:27.958Z,5.77
2022-10-11T00:45:59.874Z,5.77
2022-10-11T00:46:30.997Z,5.72
2022-10-11T00:47:03.849Z,5.72
2022-10-11T00:47:35.904Z,5.72
2022-10-11T00:47:58.707Z,5.72
2022-10-11T00:48:21.145Z,5.72
2022-10-11T00:48:55.784Z,5.72
2022-10-11T00:49:27.851Z,5.72
2022-10-11T00:50:00.256Z,5.72
2022-10-11T00:50:30.957Z,5.72
2022-10-11T00:51:04.351Z,5.72
2022-10-11T00:51:35.804Z,5.72
2022-10-11T00:52:01.979Z,5.72
2022-10-11T00:52:22.297Z,5.72
2022-10-11T00:52:55.829Z,5.72
2022-10-11T00:53:28.367Z,5.72
2022-10-11T00:53:59.764Z,5.72
2022-10-11T00:54:31.072Z,5.72
2022-10-11T00:55:03.925Z,5.72
2022-10-11T00:55:36.076Z,5.72
2022-10-11T00:55:59.072Z,5.72
2022-10-11T00:56:21.537Z,5.72
2022-10-11T00:56:55.902Z,5.72
2022-10-11T00:57:27.947Z,5.72
2022-10-11T00:58:00.109Z,5.72
2022-10-11T00:58:30.982Z,5.72
2022-10-11T00:59:03.844Z,5.72
2022-10-11T00:59:36.020Z,5.72
2022-10-11T00:59:58.820Z,5.72
2022-10-11T01:00:21.208Z,5.72
2022-10-11T01:00:55.821Z,5.61
2022-10-11T01:01:27.951Z,5.61
2022-10-11T01:01:59.839Z,5.61
2022-10-11T01:02:30.841Z,5.61
2022-10-11T01:03:03.882Z,5.61
2022-10-11T01:03:35.836Z,5.50
2022-10-11T01:03:59.457Z,5.50
2022-10-11T01:04:21.724Z,5.50
2022-10-11T01:05:17.944Z,5.50
2022-10-11T01:05:43.787Z,5.50
2022-10-11T01:06:07.964Z,5.50
2022-10-11T01:06:29.872Z,5.38
2022-10-11T01:07:04.147Z,5.27
2022-10-11T01:07:37.354Z,5.27
2022-10-11T01:07:58.570Z,5.27
2022-10-11T01:08:21.016Z,5.22
2022-10-11T01:08:55.920Z,5.22
2022-10-11T01:09:27.754Z,5.22
2022-10-11T01:09:59.831Z,5.22
2022-10-11T01:10:30.907Z,5.22
2022-10-11T01:11:03.864Z,5.22
2022-10-11T01:11:35.776Z,5.22
2022-10-11T01:11:58.839Z,5.27
2022-10-11T01:12:21.271Z,5.27
2022-10-11T01:12:55.997Z,5.38
2022-10-11T01:13:28.001Z,5.38
2022-10-11T01:13:59.863Z,5.38
2022-10-11T01:14:30.871Z,5.50
2022-10-11T01:15:05.724Z,5.50
2022-10-11T01:15:35.940Z,5.50
2022-10-11T01:15:58.852Z,5.50
2022-10-11T01:16:21.293Z,5.50
2022-10-11T01:16:55.833Z,5.50
2022-10-11T01:17:27.959Z,5.50
2022-10-11T01:17:59.877Z,5.50
2022-10-11T01:18:30.884Z,5.38
2022-10-11T01:19:03.898Z,5.38
2022-10-11T01:19:35.847Z,5.38
2022-10-11T01:19:58.658Z,5.38
2022-10-11T01:20:20.994Z,5.38
2022-10-11T01:20:56.369Z,5.38
2022-10-11T01:21:27.905Z,5.38
2022-10-11T01:22:03.342Z,5.38
2022-10-11T01:22:31.367Z,5.38
2022-10-11T01:23:03.999Z,5.50
2022-10-11T01:23:35.704Z,5.50
2022-10-11T01:23:58.528Z,5.50
2022-10-11T01:24:20.727Z,5.50
2022-10-11T01:24:55.930Z,5.50
2022-10-11T01:25:28.250Z,5.50
2022-10-11T01:25:59.764Z,5.38
2022-10-11T01:26:30.988Z,5.38
2022-10-11T01:27:03.892Z,5.38
2022-10-11T01:27:35.927Z,5.38
2022-10-11T01:27:59.525Z,5.38
2022-10-11T01:28:21.846Z,5.38
2022-10-11T01:28:55.872Z,5.38
2022-10-11T01:29:27.921Z,5.38
2022-10-11T01:29:59.983Z,5.38
2022-10-11T01:30:31.149Z,5.38
2022-10-11T01:31:04.195Z,5.38
2022-10-11T01:31:36.256Z,5.50
2022-10-11T01:31:59.035Z,5.50
2022-10-11T01:32:21.391Z,5.38
2022-10-11T01:32:55.747Z,5.50
2022-10-11T01:33:27.952Z,5.50
2022-10-11T01:33:59.852Z,5.61
2022-10-11T01:34:30.870Z,5.61
2022-10-11T01:35:05.282Z,5.72
2022-10-11T01:35:35.876Z,5.72
2022-10-11T01:35:59.183Z,5.72
2022-10-11T01:36:21.517Z,5.72
2022-10-11T01:36:55.869Z,5.72
2022-10-11T01:37:27.874Z,5.72
2022-10-11T01:38:00.032Z,5.72
2022-10-11T01:38:30.984Z,5.72
2022-10-11T01:39:03.994Z,5.72
2022-10-11T01:39:37.255Z,5.72
2022-10-11T01:39:59.151Z,5.61
2022-10-11T01:40:21.454Z,5.61
2022-10-11T01:40:55.843Z,5.61
2022-10-11T01:41:27.713Z,5.61
2022-10-11T01:41:59.915Z,5.61
2022-10-11T01:42:30.986Z,5.61
2022-10-11T01:43:03.855Z,5.61
2022-10-11T01:43:35.809Z,5.61
2022-10-11T01:43:58.709Z,5.61
2022-10-11T01:44:21.006Z,5.61
2022-10-11T01:44:56.263Z,5.61
2022-10-11T01:45:27.915Z,5.72
2022-10-11T01:45:59.869Z,5.72
2022-10-11T01:46:30.929Z,5.77
2022-10-11T01:47:03.725Z,5.77
2022-10-11T01:47:35.786Z,5.77
2022-10-11T01:47:58.234Z,5.77
2022-10-11T01:48:20.880Z,5.72
2022-10-11T01:48:55.965Z,5.72
2022-10-11T01:49:27.966Z,5.72
2022-10-11T01:49:59.774Z,5.72
2022-10-11T01:50:30.891Z,5.72
2022-10-11T01:51:03.743Z,5.72
2022-10-11T01:51:45.196Z,5.72
2022-10-11T01:51:58.599Z,5.72
2022-10-11T01:52:21.151Z,5.72
2022-10-11T01:52:57.345Z,5.72
2022-10-11T01:53:27.757Z,5.72
2022-10-11T01:53:59.882Z,5.61
2022-10-11T01:54:49.917Z,5.61
2022-10-11T01:55:10.730Z,5.61
2022-10-11T01:55:33.124Z,5.38
2022-10-11T01:56:03.119Z,5.38
2022-10-11T01:56:39.996Z,5.38
2022-10-11T01:57:02.455Z,5.38
2022-10-11T01:57:24.941Z,5.27
2022-10-11T01:57:59.961Z,5.27
2022-10-11T01:58:31.177Z,5.22
2022-10-11T01:59:03.849Z,5.11
2022-10-11T01:59:36.148Z,5.11
2022-10-11T01:59:59.041Z,5.11
2022-10-11T02:00:29.479Z,5.11
2022-10-11T02:00:56.053Z,5.00
2022-10-11T02:01:25.330Z,5.11
2022-10-11T02:02:00.470Z,5.11
2022-10-11T02:02:34.631Z,5.11
2022-10-11T02:03:04.280Z,5.11
2022-10-11T02:03:36.477Z,5.11
2022-10-11T02:03:59.277Z,5.11
2022-10-11T02:04:21.747Z,5.11
2022-10-11T02:04:56.511Z,5.11
2022-10-11T02:05:27.842Z,5.11
2022-10-11T02:06:00.088Z,5.22
2022-10-11T02:06:31.626Z,5.22
2022-10-11T02:07:13.512Z,5.22
2022-10-11T02:07:35.994Z,5.22
2022-10-11T02:07:58.603Z,5.22
2022-10-11T02:08:21.910Z,5.22
2022-10-11T02:08:55.854Z,5.22
2022-10-11T02:09:28.209Z,5.22
2022-10-11T02:09:59.814Z,5.22
2022-10-11T02:10:31.503Z,5.22
2022-10-11T02:11:03.960Z,5.22
2022-10-11T02:11:36.557Z,5.22
2022-10-11T02:12:05.828Z,5.22
2022-10-11T02:12:22.662Z,5.22
2022-10-11T02:12:56.331Z,5.22
2022-10-11T02:13:27.835Z,5.22
2022-10-11T02:13:59.886Z,5.22
2022-10-11T02:14:30.917Z,5.27
2022-10-11T02:15:05.002Z,5.27
2022-10-11T02:15:35.825Z,5.27
2022-10-11T02:15:58.504Z,5.27
2022-10-11T02:16:21.707Z,5.27
2022-10-11T02:16:55.709Z,5.27
2022-10-11T02:17:28.168Z,5.22
2022-10-11T02:17:59.788Z,5.22
2022-10-11T02:18:31.068Z,5.22
2022-10-11T02:19:03.868Z,5.11
2022-10-11T02:19:38.127Z,5.11
2022-10-11T02:20:00.382Z,5.00
2022-10-11T02:20:22.644Z,5.00
2022-10-11T02:20:58.659Z,5.00
2022-10-11T02:21:27.870Z,5.00
2022-10-11T02:22:00.111Z,4.88
2022-10-11T02:22:31.438Z,4.88
2022-10-11T02:23:04.410Z,4.88
2022-10-11T02:23:36.085Z,4.77
2022-10-11T02:23:58.811Z,4.77
2022-10-11T02:24:22.307Z,4.77
2022-10-11T02:24:55.834Z,4.72
2022-10-11T02:25:28.753Z,4.72
2022-10-11T02:25:59.746Z,4.61
2022-10-11T02:26:30.974Z,4.61
2022-10-11T02:27:03.998Z,4.61
2022-10-11T02:27:36.874Z,4.61
2022-10-11T02:27:59.833Z,4.61
2022-10-11T02:28:22.379Z,4.61
2022-10-11T02:28:56.282Z,4.61
2022-10-11T02:29:28.155Z,4.61
2022-10-11T02:30:02.298Z,4.61
2022-10-11T02:30:30.919Z,4.61
2022-10-11T02:31:04.841Z,4.61
2022-10-11T02:31:36.185Z,4.61
2022-10-11T02:31:59.506Z,4.61
2022-10-11T02:32:22.664Z,4.61
2022-10-11T02:32:56.046Z,4.61
2022-10-11T02:33:28.551Z,4.72
2022-10-11T02:34:01.076Z,4.72
2022-10-11T02:34:31.838Z,4.77
2022-10-11T02:35:03.790Z,4.77
2022-10-11T02:35:36.122Z,4.77
2022-10-11T02:35:59.023Z,4.88
2022-10-11T02:36:21.458Z,4.88
2022-10-11T02:36:56.926Z,4.88
2022-10-11T02:37:27.857Z,4.88
2022-10-11T02:38:00.051Z,4.88
2022-10-11T02:38:30.948Z,4.88
2022-10-11T02:39:06.706Z,5.00
2022-10-11T02:39:35.805Z,5.00
2022-10-11T02:39:58.573Z,5.00
2022-10-11T02:40:21.782Z,5.00
2022-10-11T02:40:55.960Z,5.00
2022-10-11T02:41:27.894Z,5.00
2022-10-11T02:41:59.940Z,4.88
2022-10-11T02:42:31.068Z,4.88
2022-10-11T02:43:03.866Z,4.88
2022-10-11T02:43:35.943Z,4.88
2022-10-11T02:43:58.611Z,4.88
2022-10-11T02:44:21.016Z,4.88
2022-10-11T02:44:57.106Z,4.88
2022-10-11T02:45:28.085Z,4.88
2022-10-11T02:46:00.506Z,4.88
2022-10-11T02:46:31.017Z,4.88
2022-10-11T02:47:04.226Z,4.88
2022-10-11T02:47:36.051Z,4.88
2022-10-11T02:47:58.814Z,4.88
2022-10-11T02:48:21.861Z,4.88
2022-10-11T02:48:55.837Z,4.88
2022-10-11T02:49:30.976Z,4.77
2022-10-11T02:49:53.528Z,4.77
2022-10-11T02:50:31.312Z,4.77
2022-10-11T02:51:03.825Z,4.72
2022-10-11T02:51:35.967Z,4.72
2022-10-11T02:51:59.432Z,4.72
2022-10-11T02:52:21.766Z,4.61
2022-10-11T02:52:55.927Z,4.50
2022-10-11T02:53:27.849Z,4.38
2022-10-11T02:54:00.310Z,4.38
2022-10-11T02:54:31.385Z,4.27
2022-10-11T02:55:03.846Z,4.22
2022-10-11T02:55:35.919Z,4.11
2022-10-11T02:56:01.380Z,4.11
2022-10-11T02:56:21.018Z,4.00
2022-10-11T02:56:55.835Z,4.00
2022-10-11T02:57:27.688Z,4.00
2022-10-11T02:57:59.795Z,4.00
2022-10-11T02:58:34.379Z,4.00
2022-10-11T02:59:03.827Z,4.00
2022-10-11T02:59:35.901Z,3.88
2022-10-11T02:59:59.025Z,3.88
2022-10-11T03:00:22.811Z,3.88
2022-10-11T03:00:55.866Z,3.88
2022-10-11T03:01:28.050Z,3.88
2022-10-11T03:01:59.872Z,3.88
2022-10-11T03:02:30.889Z,3.88
2022-10-11T03:03:04.364Z,3.88
2022-10-11T03:03:37.346Z,3.88
2022-10-11T03:03:58.723Z,3.88
2022-10-11T03:04:21.153Z,3.77
2022-10-11T03:04:55.903Z,3.77
2022-10-11T03:05:28.364Z,3.77
2022-10-11T03:05:59.828Z,3.77
2022-10-11T03:06:30.943Z,3.77
2022-10-11T03:07:03.804Z,3.77
2022-10-11T03:07:36.211Z,3.77
2022-10-11T03:07:59.028Z,3.77
2022-10-11T03:08:21.444Z,3.88
2022-10-11T03:08:57.185Z,3.88
2022-10-11T03:09:27.791Z,3.88
2022-10-11T03:09:59.825Z,3.88
2022-10-11T03:10:31.090Z,3.88
2022-10-11T03:11:03.867Z,4.00
2022-10-11T03:11:35.793Z,4.00
2022-10-11T03:11:58.583Z,4.00
2022-10-11T03:12:20.977Z,4.00
2022-10-11T03:12:55.839Z,4.11
2022-10-11T03:13:28.167Z,4.11
2022-10-11T03:13:59.896Z,4.22
2022-10-11T03:14:30.954Z,4.22
2022-10-11T03:15:05.823Z,4.22
2022-10-11T03:15:35.927Z,4.22
2022-10-11T03:16:03.315Z,4.22
2022-10-11T03:16:21.158Z,4.22
2022-10-11T03:17:00.751Z,4.22
2022-10-11T03:17:36.097Z,4.22
2022-10-11T03:17:59.837Z,4.11
2022-10-11T03:18:30.965Z,4.11
2022-10-11T03:19:03.847Z,4.11
2022-10-11T03:19:35.691Z,4.11
2022-10-11T03:19:58.722Z,4.11
2022-10-11T03:20:20.926Z,4.11
2022-10-11T03:20:55.927Z,4.11
2022-10-11T03:21:27.863Z,4.11
2022-10-11T03:21:59.780Z,4.11
2022-10-11T03:22:30.992Z,4.11
2022-10-11T03:23:03.884Z,4.11
2022-10-11T03:23:37.388Z,4.11
2022-10-11T03:23:59.790Z,4.11
2022-10-11T03:24:22.258Z,4.11
2022-10-11T03:24:59.747Z,4.11
2022-10-11T03:25:27.917Z,4.00
2022-10-11T03:26:01.405Z,4.00
2022-10-11T03:26:31.070Z,4.00
2022-10-11T03:27:03.842Z,4.00
2022-10-11T03:27:35.804Z,4.00
2022-10-11T03:27:58.603Z,4.00
2022-10-11T03:28:21.111Z,4.00
2022-10-11T03:28:55.820Z,4.00
2022-10-11T03:29:27.747Z,4.00
2022-10-11T03:29:59.923Z,4.00
2022-10-11T03:30:30.951Z,3.88
2022-10-11T03:31:03.796Z,3.88
2022-10-11T03:31:35.714Z,3.88
2022-10-11T03:31:58.481Z,3.88
2022-10-11T03:32:20.936Z,3.88
2022-10-11T03:32:55.950Z,3.77
2022-10-11T03:33:27.820Z,3.77
2022-10-11T03:33:59.829Z,3.77
2022-10-11T03:34:30.875Z,3.77
2022-10-11T03:35:03.843Z,3.88
2022-10-11T03:35:37.463Z,3.88
2022-10-11T03:36:00.145Z,3.88
2022-10-11T03:36:21.053Z,3.88
2022-10-11T03:36:55.737Z,3.88
2022-10-11T03:37:27.928Z,3.88
2022-10-11T03:37:59.776Z,3.88
2022-10-11T03:38:30.866Z,4.00
2022-10-11T03:39:03.924Z,4.00
2022-10-11T03:39:36.060Z,4.00
2022-10-11T03:39:59.116Z,4.00
2022-10-11T03:40:21.447Z,4.00
2022-10-11T03:40:55.790Z,4.00
2022-10-11T03:41:27.888Z,4.11
2022-10-11T03:41:59.819Z,4.11
2022-10-11T03:42:31.032Z,4.11
2022-10-11T03:43:04.020Z,4.11
2022-10-11T03:43:35.721Z,4.11
2022-10-11T03:43:58.353Z,4.11
2022-10-11T03:44:20.668Z,4.11
2022-10-11T03:44:55.910Z,4.11
2022-10-11T03:45:27.686Z,4.00
2022-10-11T03:45:59.901Z,4.00
2022-10-11T03:46:30.906Z,4.00
2022-10-11T03:47:03.826Z,4.00
2022-10-11T03:47:35.736Z,4.11
2022-10-11T03:47:58.780Z,4.11
2022-10-11T03:48:21.074Z,4.11
2022-10-11T03:48:56.121Z,4.11
2022-10-11T03:49:27.664Z,4.11
2022-10-11T03:49:59.666Z,4.11
2022-10-11T03:50:30.960Z,4.11
2022-10-11T03:51:03.702Z,4.11
2022-10-11T03:51:35.674Z,4.11
2022-10-11T03:51:58.367Z,4.11
2022-10-11T03:52:22.226Z,4.11
2022-10-11T03:52:55.837Z,4.11
2022-10-11T03:53:27.883Z,4.11
2022-10-11T03:53:54.161Z,4.11
2022-10-11T03:54:31.931Z,4.11
2022-10-11T03:55:04.318Z,4.11
2022-10-11T03:55:36.720Z,4.11
2022-10-11T03:55:59.354Z,4.11
2022-10-11T03:56:21.688Z,4.11
2022-10-11T03:56:55.914Z,4.11
2022-10-11T03:57:28.011Z,4.11
2022-10-11T03:57:59.851Z,4.22
2022-10-11T03:58:31.202Z,4.22
2022-10-11T03:59:03.879Z,4.22
2022-10-11T03:59:35.957Z,4.22
2022-10-11T03:59:58.674Z,4.22
2022-10-11T04:00:21.057Z,4.22
2022-10-11T04:00:56.308Z,4.22
2022-10-11T04:01:27.972Z,4.22
2022-10-11T04:02:00.668Z,4.22
2022-10-11T04:02:33.715Z,4.22
2022-10-11T04:03:03.939Z,4.22
2022-10-11T04:03:35.791Z,4.22
2022-10-11T04:03:58.729Z,4.22
2022-10-11T04:04:21.656Z,4.22
2022-10-11T04:04:55.905Z,4.22
2022-10-11T04:05:28.017Z,4.27
2022-10-11T04:06:00.011Z,4.27
2022-10-11T04:06:34.563Z,4.27
2022-10-11T04:07:04.155Z,4.27
2022-10-11T04:07:36.524Z,4.27
2022-10-11T04:07:59.714Z,4.27
2022-10-11T04:08:21.824Z,4.27
2022-10-11T04:08:58.149Z,4.27
2022-10-11T04:09:28.148Z,4.27
2022-10-11T04:09:59.812Z,4.27
2022-10-11T04:10:31.021Z,4.27
2022-10-11T04:11:04.225Z,4.38
2022-10-11T04:11:35.857Z,4.38
2022-10-11T04:11:58.549Z,4.38
2022-10-11T04:12:21.462Z,4.38
2022-10-11T04:12:55.865Z,4.38
2022-10-11T04:13:28.042Z,4.38
2022-10-11T04:13:59.883Z,4.38
2022-10-11T04:14:31.003Z,4.38
2022-10-11T04:15:04.031Z,4.38
2022-10-11T04:15:36.166Z,4.38
2022-10-11T04:15:58.980Z,4.38
2022-10-11T04:16:21.412Z,4.38
2022-10-11T04:16:59.623Z,4.38
2022-10-11T04:17:27.695Z,4.38
2022-10-11T04:17:59.876Z,4.38
2022-10-11T04:18:31.037Z,4.38
2022-10-11T04:19:04.150Z,4.38
2022-10-11T04:19:36.149Z,4.38
2022-10-11T04:19:58.765Z,4.38
2022-10-11T04:20:21.362Z,4.38
2022-10-11T04:20:55.880Z,4.38
2022-10-11T04:21:27.751Z,4.38
2022-10-11T04:21:59.892Z,4.38
2022-10-11T04:22:32.415Z,4.38
2022-10-11T04:23:03.971Z,4.38
2022-10-11T04:23:36.736Z,4.38
2022-10-11T04:23:59.613Z,4.38
2022-10-11T04:24:21.971Z,4.38
2022-10-11T04:24:55.888Z,4.38
2022-10-11T04:25:27.782Z,4.38
2022-10-11T04:25:59.899Z,4.38
2022-10-11T04:26:31.042Z,4.38
2022-10-11T04:27:06.804Z,4.38
2022-10-11T04:27:37.335Z,4.38
2022-10-11T04:28:00.129Z,4.38
2022-10-11T04:28:22.817Z,4.38
2022-10-11T04:28:55.899Z,4.38
2022-10-11T04:29:32.331Z,4.38
2022-10-11T04:30:00.344Z,4.38
2022-10-11T04:30:31.796Z,4.38
2022-10-11T04:31:04.093Z,4.38
2022-10-11T04:31:36.271Z,4.38
2022-10-11T04:31:58.991Z,4.50
2022-10-11T04:32:21.433Z,4.50
2022-10-11T04:32:55.812Z,4.50
2022-10-11T04:33:28.259Z,4.50
2022-10-11T04:34:00.445Z,4.50
2022-10-11T04:34:31.029Z,4.50
2022-10-11T04:35:04.846Z,4.50
2022-10-11T04:35:35.851Z,4.50
2022-10-11T04:35:58.686Z,4.50
2022-10-11T04:36:21.773Z,4.50
2022-10-11T04:36:56.477Z,4.50
2022-10-11T04:37:28.316Z,4.50
2022-10-11T04:38:00.135Z,4.50
2022-10-11T04:38:31.112Z,4.50
2022-10-11T04:39:03.695Z,4.38
2022-10-11T04:39:36.372Z,4.38
2022-10-11T04:39:58.987Z,4.38
2022-10-11T04:40:21.482Z,4.38
2022-10-11T04:40:55.849Z,4.38
2022-10-11T04:41:29.101Z,4.38
2022-10-11T04:42:01.402Z,4.38
2022-10-11T04:42:31.132Z,4.38
2022-10-11T04:43:04.148Z,4.38
2022-10-11T04:43:36.533Z,4.38
2022-10-11T04:43:59.161Z,4.38
2022-10-11T04:44:23.085Z,4.38
2022-10-11T04:44:55.893Z,4.38
2022-10-11T04:45:29.410Z,4.38
2022-10-11T04:45:59.960Z,4.38
2022-10-11T04:46:31.158Z,4.38
2022-10-11T04:47:03.683Z,4.38
2022-10-11T04:47:35.784Z,4.38
2022-10-11T04:47:58.535Z,4.38
2022-10-11T04:48:22.532Z,4.38
2022-10-11T04:48:56.107Z,4.38
2022-10-11T04:49:28.187Z,4.38
2022-10-11T04:50:00.527Z,4.38
2022-10-11T04:50:31.386Z,4.38
2022-10-11T04:51:03.766Z,4.38
2022-10-11T04:51:35.701Z,4.38
2022-10-11T04:51:58.374Z,4.38
2022-10-11T04:52:25.382Z,4.38
2022-10-11T04:52:55.828Z,4.38
2022-10-11T04:53:28.627Z,4.38
2022-10-11T04:54:00.241Z,4.38
2022-10-11T04:54:31.674Z,4.38
2022-10-11T04:55:04.337Z,4.38
2022-10-11T04:55:36.110Z,4.38
2022-10-11T04:55:59.009Z,4.38
2022-10-11T04:56:21.981Z,4.38
2022-10-11T04:56:55.859Z,4.38
2022-10-11T04:57:27.758Z,4.38
2022-10-11T04:58:00.505Z,4.38
2022-10-11T04:58:31.013Z,4.38
2022-10-11T04:59:04.278Z,4.38
2022-10-11T04:59:35.861Z,4.27
2022-10-11T04:59:58.611Z,4.27
2022-10-11T05:00:21.051Z,4.27
2022-10-11T05:00:56.221Z,4.27
2022-10-11T05:01:28.765Z,4.27
2022-10-11T05:02:00.193Z,4.27
2022-10-11T05:02:34.565Z,4.27
2022-10-11T05:03:03.785Z,4.27
2022-10-11T05:03:35.884Z,4.27
2022-10-11T05:03:58.825Z,4.27
2022-10-11T05:04:20.891Z,4.27
2022-10-11T05:04:59.300Z,4.27
2022-10-11T05:05:21.710Z,4.27
2022-10-11T05:06:05.379Z,4.27
2022-10-11T05:06:31.418Z,4.27
2022-10-11T05:07:03.743Z,4.27
2022-10-11T05:07:35.774Z,4.27
2022-10-11T05:07:59.160Z,4.27
2022-10-11T05:08:21.527Z,4.27
2022-10-11T05:08:55.994Z,4.27
2022-10-11T05:09:27.798Z,4.27
2022-10-11T05:09:59.780Z,4.27
2022-10-11T05:10:30.979Z,4.27
2022-10-11T05:11:03.675Z,4.22
2022-10-11T05:11:35.811Z,4.22
2022-10-11T05:11:58.492Z,4.22
2022-10-11T05:12:21.296Z,4.22
2022-10-11T05:12:55.860Z,4.22
2022-10-11T05:13:27.803Z,4.22
2022-10-11T05:13:59.782Z,4.22
2022-10-11T05:14:30.896Z,4.22
2022-10-11T05:15:04.183Z,4.22
2022-10-11T05:15:35.895Z,4.22
2022-10-11T05:15:58.497Z,4.22
2022-10-11T05:16:20.901Z,4.22
2022-10-11T05:16:55.687Z,4.22
2022-10-11T05:17:27.841Z,4.22
2022-10-11T05:17:59.778Z,4.11
2022-10-11T05:18:31.024Z,4.11
2022-10-11T05:19:03.819Z,4.11
2022-10-11T05:19:35.879Z,4.11
2022-10-11T05:19:58.875Z,4.11
2022-10-11T05:20:21.139Z,4.11
2022-10-11T05:20:55.745Z,4.11
2022-10-11T05:21:27.673Z,4.11
2022-10-11T05:21:59.708Z,4.11
2022-10-11T05:22:30.895Z,4.11
2022-10-11T05:23:03.830Z,4.11
2022-10-11T05:23:35.770Z,4.11
2022-10-11T05:23:58.333Z,4.11
2022-10-11T05:24:20.666Z,4.11
2022-10-11T05:24:55.918Z,4.11
2022-10-11T05:25:27.817Z,4.11
2022-10-11T05:25:59.887Z,4.11
2022-10-11T05:26:31.129Z,4.11
2022-10-11T05:27:03.838Z,4.11
2022-10-11T05:27:35.951Z,4.11
2022-10-11T05:27:58.903Z,4.11
2022-10-11T05:28:21.393Z,4.22
2022-10-11T05:28:56.086Z,4.22
2022-10-11T05:29:28.135Z,4.22
2022-10-11T05:30:01.401Z,4.22
2022-10-11T05:30:31.108Z,4.22
2022-10-11T05:31:03.810Z,4.22
2022-10-11T05:31:35.963Z,4.22
2022-10-11T05:31:58.794Z,4.22
2022-10-11T05:32:21.062Z,4.22
2022-10-11T05:32:55.751Z,4.22
2022-10-11T05:33:27.850Z,4.22
2022-10-11T05:33:59.678Z,4.22
2022-10-11T05:34:31.052Z,4.22
2022-10-11T05:35:03.792Z,4.22
2022-10-11T05:35:35.785Z,4.22
2022-10-11T05:35:58.625Z,4.11
2022-10-11T05:36:20.919Z,4.11
2022-10-11T05:36:55.879Z,4.11
2022-10-11T05:37:27.854Z,4.11
2022-10-11T05:37:59.771Z,4.11
2022-10-11T05:38:32.488Z,4.11
2022-10-11T05:39:03.841Z,4.11
2022-10-11T05:39:35.903Z,4.11
2022-10-11T05:39:58.428Z,4.11
2022-10-11T05:40:20.814Z,4.11
2022-10-11T05:40:55.799Z,4.11
2022-10-11T05:41:27.997Z,4.11
2022-10-11T05:41:59.998Z,4.11
2022-10-11T05:42:31.045Z,4.11
2022-10-11T05:43:03.821Z,4.11
2022-10-11T05:43:35.961Z,4.11
2022-10-11T05:43:59.343Z,4.11
2022-10-11T05:44:21.561Z,4.11
2022-10-11T05:44:55.967Z,4.11
2022-10-11T05:45:28.402Z,4.11
2022-10-11T05:46:00.345Z,4.11
2022-10-11T05:46:31.143Z,4.11
2022-10-11T05:47:03.898Z,4.11
2022-10-11T05:47:35.915Z,4.11
2022-10-11T05:47:59.331Z,4.11
2022-10-11T05:48:21.605Z,4.11
2022-10-11T05:48:55.826Z,4.11
2022-10-11T05:49:27.929Z,4.22
2022-10-11T05:49:59.872Z,4.22
2022-10-11T05:50:31.012Z,4.22
2022-10-11T05:51:03.950Z,4.22
2022-10-11T05:51:35.897Z,4.22
2022-10-11T05:51:58.988Z,4.22
2022-10-11T05:52:21.457Z,4.22
2022-10-11T05:52:55.924Z,4.22
2022-10-11T05:53:27.785Z,4.22
2022-10-11T05:54:01.612Z,4.22
2022-10-11T05:54:31.249Z,4.22
2022-10-11T05:55:03.752Z,4.22
2022-10-11T05:55:35.952Z,4.22
2022-10-11T05:55:58.944Z,4.22
2022-10-11T05:56:20.764Z,4.22
2022-10-11T05:56:56.030Z,4.22
2022-10-11T05:57:27.832Z,4.11
2022-10-11T05:57:59.888Z,4.11
2022-10-11T05:58:31.071Z,4.11
2022-10-11T05:59:03.840Z,4.11
2022-10-11T05:59:35.802Z,4.22
2022-10-11T05:59:58.751Z,4.22
2022-10-11T06:00:21.043Z,4.22
2022-10-11T06:00:56.067Z,4.22
2022-10-11T06:01:34.427Z,4.22
2022-10-11T06:01:59.929Z,4.22
2022-10-11T06:02:31.255Z,4.22
2022-10-11T06:03:03.910Z,4.22
2022-10-11T06:03:36.010Z,4.22
2022-10-11T06:03:59.182Z,4.22
2022-10-11T06:04:21.001Z,4.22
2022-10-11T06:04:56.058Z,4.22
2022-10-11T06:05:27.839Z,4.22
2022-10-11T06:06:00.013Z,4.22
2022-10-11T06:06:31.143Z,4.22
2022-10-11T06:07:04.291Z,4.22
2022-10-11T06:07:35.794Z,4.22
2022-10-11T06:07:58.576Z,4.22
2022-10-11T06:08:20.888Z,4.22
2022-10-11T06:08:56.153Z,4.22
2022-10-11T06:09:29.221Z,4.22
2022-10-11T06:09:59.900Z,4.22
2022-10-11T06:10:27.902Z,4.27
2022-10-11T06:11:04.407Z,4.27
2022-10-11T06:11:36.319Z,4.27
2022-10-11T06:11:59.072Z,4.27
2022-10-11T06:12:21.479Z,4.27
2022-10-11T06:12:57.017Z,4.27
2022-10-11T06:13:27.942Z,4.27
2022-10-11T06:13:59.957Z,4.27
2022-10-11T06:14:31.265Z,4.27
2022-10-11T06:15:04.472Z,4.27
2022-10-11T06:15:36.027Z,4.27
2022-10-11T06:15:59.133Z,4.27
2022-10-11T06:16:21.679Z,4.27
2022-10-11T06:16:55.984Z,4.27
2022-10-11T06:17:27.883Z,4.27
2022-10-11T06:17:59.923Z,4.27
2022-10-11T06:18:32.026Z,4.27
2022-10-11T06:19:04.087Z,4.27
2022-10-11T06:19:36.128Z,4.27
2022-10-11T06:19:58.764Z,4.27
2022-10-11T06:20:21.346Z,4.27
2022-10-11T06:20:56.742Z,4.27
2022-10-11T06:21:28.022Z,4.27
2022-10-11T06:21:59.891Z,4.27
2022-10-11T06:22:31.095Z,4.27
2022-10-11T06:23:12.106Z,4.27
2022-10-11T06:23:34.559Z,4.27
2022-10-11T06:24:01.365Z,4.27
2022-10-11T06:24:19.643Z,4.27
2022-10-11T06:24:56.506Z,4.27
2022-10-11T06:25:28.125Z,4.27
2022-10-11T06:26:00.108Z,4.27
2022-10-11T06:26:31.302Z,4.27
2022-10-11T06:27:04.135Z,4.27
2022-10-11T06:27:36.522Z,4.27
2022-10-11T06:27:59.574Z,4.27
2022-10-11T06:28:21.890Z,4.27
2022-10-11T06:28:56.445Z,4.27
2022-10-11T06:29:28.195Z,4.22
2022-10-11T06:30:01.456Z,4.22
2022-10-11T06:30:31.158Z,4.22
2022-10-11T06:31:04.918Z,4.22
2022-10-11T06:31:36.000Z,4.22
2022-10-11T06:31:58.714Z,4.22
2022-10-11T06:32:21.673Z,4.22
2022-10-11T06:33:01.100Z,4.27
2022-10-11T06:33:27.753Z,4.27
2022-10-11T06:33:59.743Z,4.27
2022-10-11T06:34:31.134Z,4.27
2022-10-11T06:35:04.888Z,4.27
2022-10-11T06:35:36.888Z,4.27
2022-10-11T06:35:59.594Z,4.27
2022-10-11T06:36:21.901Z,4.27
2022-10-11T06:36:56.524Z,4.27
2022-10-11T06:37:28.025Z,4.27
2022-10-11T06:38:01.149Z,4.27
2022-10-11T06:38:31.598Z,4.27
2022-10-11T06:39:03.903Z,4.27
2022-10-11T06:39:35.924Z,4.27